sensor_id;sensor_type;location;lat;lon;timestamp;P1;durP1;ratioP1;P2;durP2;ratioP2
75261;SDS011;63859;51.064;4.580;2023-02-28T00:01:06;12.97;;;7.23;;
75261;SDS011;63859;51.064;4.580;2023-02-28T00:03:32;11.10;;;7.27;;
75261;SDS011;63859;51.064;4.580;2023-02-28T00:06:00;12.70;;;7.30;;
75261;SDS011;63859;51.064;4.580;2023-02-28T00:08:27;13.60;;;7.17;;
75261;SDS011;63859;51.064;4.580;2023-02-28T00:10:53;12.43;;;7.23;;
75261;SDS011;63859;51.064;4.580;2023-02-28T00:13:18;11.80;;;7.20;;
75261;SDS011;63859;51.064;4.580;2023-02-28T00:15:44;15.60;;;8.07;;
75261;SDS011;63859;51.064;4.580;2023-02-28T00:18:10;14.30;;;7.27;;
75261;SDS011;63859;51.064;4.580;2023-02-28T00:20:36;13.93;;;7.90;;
75261;SDS011;63859;51.064;4.580;2023-02-28T00:23:02;16.07;;;7.63;;
75261;SDS011;63859;51.064;4.580;2023-02-28T00:25:28;10.97;;;7.60;;
75261;SDS011;63859;51.064;4.580;2023-02-28T00:27:53;11.07;;;6.60;;
75261;SDS011;63859;51.064;4.580;2023-02-28T00:30:20;13.47;;;7.60;;
75261;SDS011;63859;51.064;4.580;2023-02-28T00:32:47;12.33;;;8.03;;
75261;SDS011;63859;51.064;4.580;2023-02-28T00:35:14;14.07;;;7.60;;
75261;SDS011;63859;51.064;4.580;2023-02-28T00:37:39;13.73;;;7.17;;
75261;SDS011;63859;51.064;4.580;2023-02-28T00:40:05;14.87;;;8.03;;
75261;SDS011;63859;51.064;4.580;2023-02-28T00:42:33;12.70;;;7.37;;
75261;SDS011;63859;51.064;4.580;2023-02-28T00:44:59;12.03;;;7.33;;
75261;SDS011;63859;51.064;4.580;2023-02-28T00:47:26;12.80;;;8.37;;
75261;SDS011;63859;51.064;4.580;2023-02-28T00:49:51;11.23;;;7.80;;
75261;SDS011;63859;51.064;4.580;2023-02-28T00:52:17;12.10;;;7.63;;
75261;SDS011;63859;51.064;4.580;2023-02-28T00:54:42;15.17;;;7.50;;
75261;SDS011;63859;51.064;4.580;2023-02-28T00:57:08;12.13;;;7.40;;
75261;SDS011;63859;51.064;4.580;2023-02-28T00:59:34;10.37;;;7.33;;
75261;SDS011;63859;51.064;4.580;2023-02-28T01:02:00;15.40;;;8.30;;
75261;SDS011;63859;51.064;4.580;2023-02-28T01:04:25;16.70;;;8.73;;
75261;SDS011;63859;51.064;4.580;2023-02-28T01:06:51;15.10;;;8.27;;
75261;SDS011;63859;51.064;4.580;2023-02-28T01:09:17;12.97;;;8.43;;
75261;SDS011;63859;51.064;4.580;2023-02-28T01:11:43;11.23;;;7.47;;
75261;SDS011;63859;51.064;4.580;2023-02-28T01:14:13;15.93;;;8.23;;
75261;SDS011;63859;51.064;4.580;2023-02-28T01:16:41;14.40;;;8.27;;
75261;SDS011;63859;51.064;4.580;2023-02-28T01:19:07;13.43;;;8.23;;
75261;SDS011;63859;51.064;4.580;2023-02-28T01:21:32;12.03;;;8.10;;
75261;SDS011;63859;51.064;4.580;2023-02-28T01:23:59;17.03;;;8.23;;
75261;SDS011;63859;51.064;4.580;2023-02-28T01:26:26;16.07;;;8.03;;
75261;SDS011;63859;51.064;4.580;2023-02-28T01:28:51;15.77;;;8.13;;
75261;SDS011;63859;51.064;4.580;2023-02-28T01:31:18;15.30;;;8.20;;
75261;SDS011;63859;51.064;4.580;2023-02-28T01:33:44;11.30;;;8.07;;
75261;SDS011;63859;51.064;4.580;2023-02-28T01:36:15;11.80;;;8.23;;
75261;SDS011;63859;51.064;4.580;2023-02-28T01:38:46;14.03;;;7.90;;
75261;SDS011;63859;51.064;4.580;2023-02-28T01:41:22;14.83;;;9.00;;
75261;SDS011;63859;51.064;4.580;2023-02-28T01:46:21;13.33;;;8.70;;
75261;SDS011;63859;51.064;4.580;2023-02-28T01:54:00;14.53;;;8.50;;
75261;SDS011;63859;51.064;4.580;2023-02-28T01:56:38;14.97;;;8.17;;
75261;SDS011;63859;51.064;4.580;2023-02-28T01:59:08;13.27;;;8.43;;
75261;SDS011;63859;51.064;4.580;2023-02-28T02:01:35;14.00;;;8.10;;
75261;SDS011;63859;51.064;4.580;2023-02-28T02:04:01;13.90;;;8.07;;
75261;SDS011;63859;51.064;4.580;2023-02-28T02:06:39;16.40;;;10.17;;
75261;SDS011;63859;51.064;4.580;2023-02-28T02:09:08;16.83;;;8.57;;
75261;SDS011;63859;51.064;4.580;2023-02-28T02:11:34;13.20;;;8.13;;
75261;SDS011;63859;51.064;4.580;2023-02-28T02:22:30;13.93;;;8.07;;
75261;SDS011;63859;51.064;4.580;2023-02-28T02:34:30;21.50;;;10.63;;
75261;SDS011;63859;51.064;4.580;2023-02-28T02:37:07;15.67;;;10.17;;
75261;SDS011;63859;51.064;4.580;2023-02-28T02:42:28;15.93;;;9.17;;
75261;SDS011;63859;51.064;4.580;2023-02-28T02:45:08;19.00;;;10.17;;
75261;SDS011;63859;51.064;4.580;2023-02-28T02:47:37;15.67;;;9.67;;
75261;SDS011;63859;51.064;4.580;2023-02-28T02:50:06;14.80;;;9.87;;
75261;SDS011;63859;51.064;4.580;2023-02-28T02:52:46;15.80;;;9.63;;
75261;SDS011;63859;51.064;4.580;2023-02-28T02:55:16;22.20;;;11.30;;
75261;SDS011;63859;51.064;4.580;2023-02-28T03:00:12;24.27;;;11.80;;
75261;SDS011;63859;51.064;4.580;2023-02-28T03:02:40;24.67;;;12.40;;
75261;SDS011;63859;51.064;4.580;2023-02-28T03:05:09;21.97;;;11.43;;
75261;SDS011;63859;51.064;4.580;2023-02-28T03:07:43;17.17;;;9.77;;
75261;SDS011;63859;51.064;4.580;2023-02-28T03:10:26;17.87;;;10.03;;
75261;SDS011;63859;51.064;4.580;2023-02-28T03:12:54;16.67;;;9.77;;
75261;SDS011;63859;51.064;4.580;2023-02-28T03:21:38;17.20;;;10.00;;
75261;SDS011;63859;51.064;4.580;2023-02-28T03:24:10;23.03;;;9.93;;
75261;SDS011;63859;51.064;4.580;2023-02-28T03:27:06;19.70;;;9.97;;
75261;SDS011;63859;51.064;4.580;2023-02-28T03:29:39;22.93;;;11.20;;
75261;SDS011;63859;51.064;4.580;2023-02-28T03:35:03;14.97;;;8.90;;
75261;SDS011;63859;51.064;4.580;2023-02-28T03:37:46;17.00;;;9.43;;
75261;SDS011;63859;51.064;4.580;2023-02-28T03:40:17;21.80;;;10.57;;
75261;SDS011;63859;51.064;4.580;2023-02-28T03:42:47;24.13;;;11.67;;
75261;SDS011;63859;51.064;4.580;2023-02-28T03:45:23;25.70;;;11.43;;
75261;SDS011;63859;51.064;4.580;2023-02-28T03:47:54;22.00;;;10.90;;
75261;SDS011;63859;51.064;4.580;2023-02-28T03:50:29;24.47;;;11.17;;
75261;SDS011;63859;51.064;4.580;2023-02-28T03:58:40;15.50;;;9.40;;
75261;SDS011;63859;51.064;4.580;2023-02-28T04:04:19;26.83;;;12.93;;
75261;SDS011;63859;51.064;4.580;2023-02-28T04:06:46;28.07;;;12.60;;
75261;SDS011;63859;51.064;4.580;2023-02-28T04:09:17;26.40;;;12.70;;
75261;SDS011;63859;51.064;4.580;2023-02-28T04:11:50;18.23;;;11.00;;
75261;SDS011;63859;51.064;4.580;2023-02-28T04:14:17;22.10;;;11.10;;
75261;SDS011;63859;51.064;4.580;2023-02-28T04:16:43;25.30;;;12.63;;
75261;SDS011;63859;51.064;4.580;2023-02-28T04:19:10;36.30;;;14.93;;
75261;SDS011;63859;51.064;4.580;2023-02-28T04:21:37;28.37;;;14.30;;
75261;SDS011;63859;51.064;4.580;2023-02-28T04:24:05;28.17;;;13.37;;
75261;SDS011;63859;51.064;4.580;2023-02-28T04:26:35;28.40;;;12.53;;
75261;SDS011;63859;51.064;4.580;2023-02-28T04:29:03;23.70;;;10.43;;
75261;SDS011;63859;51.064;4.580;2023-02-28T04:31:30;18.77;;;10.77;;
75261;SDS011;63859;51.064;4.580;2023-02-28T04:33:56;27.53;;;11.73;;
75261;SDS011;63859;51.064;4.580;2023-02-28T04:36:21;19.50;;;10.47;;
75261;SDS011;63859;51.064;4.580;2023-02-28T04:38:48;20.07;;;9.67;;
75261;SDS011;63859;51.064;4.580;2023-02-28T04:41:15;20.73;;;10.00;;
75261;SDS011;63859;51.064;4.580;2023-02-28T04:43:41;18.53;;;9.17;;
75261;SDS011;63859;51.064;4.580;2023-02-28T04:46:07;16.77;;;9.37;;
75261;SDS011;63859;51.064;4.580;2023-02-28T04:48:35;17.23;;;8.77;;
75261;SDS011;63859;51.064;4.580;2023-02-28T04:51:03;17.37;;;8.80;;
75261;SDS011;63859;51.064;4.580;2023-02-28T04:53:31;26.23;;;10.00;;
75261;SDS011;63859;51.064;4.580;2023-02-28T04:55:57;17.80;;;9.00;;
75261;SDS011;63859;51.064;4.580;2023-02-28T04:58:23;15.60;;;8.50;;
75261;SDS011;63859;51.064;4.580;2023-02-28T05:00:49;15.23;;;8.83;;
75261;SDS011;63859;51.064;4.580;2023-02-28T05:03:16;16.20;;;8.93;;
75261;SDS011;63859;51.064;4.580;2023-02-28T05:05:41;16.10;;;9.00;;
75261;SDS011;63859;51.064;4.580;2023-02-28T05:08:07;17.90;;;9.90;;
75261;SDS011;63859;51.064;4.580;2023-02-28T05:10:34;20.53;;;9.87;;
75261;SDS011;63859;51.064;4.580;2023-02-28T05:13:00;15.80;;;9.27;;
75261;SDS011;63859;51.064;4.580;2023-02-28T05:15:26;18.63;;;9.10;;
75261;SDS011;63859;51.064;4.580;2023-02-28T05:17:51;16.60;;;9.10;;
75261;SDS011;63859;51.064;4.580;2023-02-28T05:20:17;18.93;;;8.90;;
75261;SDS011;63859;51.064;4.580;2023-02-28T05:22:43;20.07;;;8.80;;
75261;SDS011;63859;51.064;4.580;2023-02-28T05:25:20;28.27;;;9.93;;
75261;SDS011;63859;51.064;4.580;2023-02-28T05:27:49;15.17;;;9.17;;
75261;SDS011;63859;51.064;4.580;2023-02-28T05:30:14;13.73;;;8.13;;
75261;SDS011;63859;51.064;4.580;2023-02-28T05:32:40;15.93;;;8.60;;
75261;SDS011;63859;51.064;4.580;2023-02-28T05:35:08;16.97;;;9.00;;
75261;SDS011;63859;51.064;4.580;2023-02-28T05:37:37;20.93;;;9.27;;
75261;SDS011;63859;51.064;4.580;2023-02-28T05:40:03;15.67;;;8.30;;
75261;SDS011;63859;51.064;4.580;2023-02-28T05:42:36;17.27;;;8.43;;
75261;SDS011;63859;51.064;4.580;2023-02-28T05:45:05;14.27;;;8.27;;
75261;SDS011;63859;51.064;4.580;2023-02-28T05:47:32;16.27;;;8.57;;
75261;SDS011;63859;51.064;4.580;2023-02-28T05:49:58;12.30;;;8.17;;
75261;SDS011;63859;51.064;4.580;2023-02-28T05:52:23;16.77;;;8.93;;
75261;SDS011;63859;51.064;4.580;2023-02-28T05:54:49;15.40;;;8.60;;
75261;SDS011;63859;51.064;4.580;2023-02-28T05:57:15;14.80;;;8.93;;
75261;SDS011;63859;51.064;4.580;2023-02-28T05:59:40;14.57;;;8.27;;
75261;SDS011;63859;51.064;4.580;2023-02-28T06:02:08;19.30;;;9.73;;
75261;SDS011;63859;51.064;4.580;2023-02-28T06:04:37;13.10;;;8.37;;
75261;SDS011;63859;51.064;4.580;2023-02-28T06:07:03;14.63;;;7.70;;
75261;SDS011;63859;51.064;4.580;2023-02-28T06:09:28;15.40;;;8.33;;
75261;SDS011;63859;51.064;4.580;2023-02-28T06:11:54;14.13;;;8.30;;
75261;SDS011;63859;51.064;4.580;2023-02-28T06:14:22;18.40;;;8.60;;
75261;SDS011;63859;51.064;4.580;2023-02-28T06:16:47;12.53;;;7.83;;
75261;SDS011;63859;51.064;4.580;2023-02-28T06:19:13;12.80;;;7.90;;
75261;SDS011;63859;51.064;4.580;2023-02-28T06:21:40;16.20;;;8.63;;
75261;SDS011;63859;51.064;4.580;2023-02-28T06:24:05;20.83;;;8.63;;
75261;SDS011;63859;51.064;4.580;2023-02-28T06:26:31;15.37;;;7.97;;
75261;SDS011;63859;51.064;4.580;2023-02-28T06:28:57;12.07;;;7.80;;
75261;SDS011;63859;51.064;4.580;2023-02-28T06:31:23;15.90;;;8.00;;
75261;SDS011;63859;51.064;4.580;2023-02-28T06:33:50;14.17;;;7.90;;
75261;SDS011;63859;51.064;4.580;2023-02-28T06:36:16;13.27;;;8.07;;
75261;SDS011;63859;51.064;4.580;2023-02-28T06:38:42;19.17;;;9.17;;
75261;SDS011;63859;51.064;4.580;2023-02-28T06:41:09;14.37;;;7.97;;
75261;SDS011;63859;51.064;4.580;2023-02-28T06:43:36;14.97;;;8.10;;
75261;SDS011;63859;51.064;4.580;2023-02-28T06:46:05;14.67;;;8.07;;
75261;SDS011;63859;51.064;4.580;2023-02-28T06:48:33;15.13;;;8.10;;
75261;SDS011;63859;51.064;4.580;2023-02-28T06:51:03;10.87;;;7.73;;
75261;SDS011;63859;51.064;4.580;2023-02-28T06:53:30;13.53;;;8.37;;
75261;SDS011;63859;51.064;4.580;2023-02-28T06:55:56;10.80;;;7.23;;
75261;SDS011;63859;51.064;4.580;2023-02-28T06:58:22;11.03;;;7.23;;
75261;SDS011;63859;51.064;4.580;2023-02-28T07:00:50;13.93;;;7.63;;
75261;SDS011;63859;51.064;4.580;2023-02-28T07:03:17;16.33;;;8.10;;
75261;SDS011;63859;51.064;4.580;2023-02-28T07:05:43;15.43;;;7.80;;
75261;SDS011;63859;51.064;4.580;2023-02-28T07:08:09;13.73;;;7.57;;
75261;SDS011;63859;51.064;4.580;2023-02-28T07:10:36;15.20;;;7.50;;
75261;SDS011;63859;51.064;4.580;2023-02-28T07:13:03;15.70;;;8.27;;
75261;SDS011;63859;51.064;4.580;2023-02-28T07:15:30;15.90;;;8.70;;
75261;SDS011;63859;51.064;4.580;2023-02-28T07:17:55;20.77;;;8.13;;
75261;SDS011;63859;51.064;4.580;2023-02-28T07:20:21;14.20;;;8.13;;
75261;SDS011;63859;51.064;4.580;2023-02-28T07:22:48;15.60;;;7.80;;
75261;SDS011;63859;51.064;4.580;2023-02-28T07:25:20;14.97;;;7.40;;
75261;SDS011;63859;51.064;4.580;2023-02-28T07:27:46;13.53;;;8.10;;
75261;SDS011;63859;51.064;4.580;2023-02-28T07:30:12;10.50;;;7.07;;
75261;SDS011;63859;51.064;4.580;2023-02-28T07:32:38;13.97;;;7.73;;
75261;SDS011;63859;51.064;4.580;2023-02-28T07:35:04;27.77;;;8.97;;
75261;SDS011;63859;51.064;4.580;2023-02-28T07:37:30;14.13;;;8.20;;
75261;SDS011;63859;51.064;4.580;2023-02-28T07:40:02;15.13;;;7.63;;
75261;SDS011;63859;51.064;4.580;2023-02-28T07:42:31;25.73;;;8.47;;
75261;SDS011;63859;51.064;4.580;2023-02-28T07:44:57;11.90;;;7.70;;
75261;SDS011;63859;51.064;4.580;2023-02-28T07:47:23;19.97;;;9.17;;
75261;SDS011;63859;51.064;4.580;2023-02-28T07:49:49;16.93;;;7.53;;
75261;SDS011;63859;51.064;4.580;2023-02-28T07:52:15;16.47;;;8.53;;
75261;SDS011;63859;51.064;4.580;2023-02-28T07:54:40;12.77;;;6.93;;
75261;SDS011;63859;51.064;4.580;2023-02-28T07:57:06;17.73;;;7.33;;
75261;SDS011;63859;51.064;4.580;2023-02-28T07:59:32;12.37;;;7.53;;
75261;SDS011;63859;51.064;4.580;2023-02-28T08:01:57;13.03;;;7.37;;
75261;SDS011;63859;51.064;4.580;2023-02-28T08:04:24;11.33;;;7.33;;
75261;SDS011;63859;51.064;4.580;2023-02-28T08:06:50;17.20;;;8.00;;
75261;SDS011;63859;51.064;4.580;2023-02-28T08:09:19;13.67;;;6.93;;
75261;SDS011;63859;51.064;4.580;2023-02-28T08:11:45;12.53;;;7.07;;
75261;SDS011;63859;51.064;4.580;2023-02-28T08:14:10;17.37;;;6.77;;
75261;SDS011;63859;51.064;4.580;2023-02-28T08:16:36;21.23;;;7.40;;
75261;SDS011;63859;51.064;4.580;2023-02-28T08:19:02;10.73;;;6.80;;
75261;SDS011;63859;51.064;4.580;2023-02-28T08:21:27;11.10;;;5.90;;
75261;SDS011;63859;51.064;4.580;2023-02-28T08:23:53;11.30;;;6.03;;
75261;SDS011;63859;51.064;4.580;2023-02-28T08:26:19;8.90;;;6.20;;
75261;SDS011;63859;51.064;4.580;2023-02-28T08:28:45;7.73;;;5.50;;
75261;SDS011;63859;51.064;4.580;2023-02-28T08:31:12;16.53;;;7.73;;
75261;SDS011;63859;51.064;4.580;2023-02-28T08:33:40;12.63;;;5.37;;
75261;SDS011;63859;51.064;4.580;2023-02-28T08:36:06;9.93;;;5.50;;
75261;SDS011;63859;51.064;4.580;2023-02-28T08:38:33;10.87;;;5.60;;
75261;SDS011;63859;51.064;4.580;2023-02-28T08:41:01;7.70;;;5.57;;
75261;SDS011;63859;51.064;4.580;2023-02-28T08:43:28;8.60;;;5.20;;
75261;SDS011;63859;51.064;4.580;2023-02-28T08:45:56;8.20;;;4.67;;
75261;SDS011;63859;51.064;4.580;2023-02-28T08:48:23;6.83;;;3.73;;
75261;SDS011;63859;51.064;4.580;2023-02-28T08:51:22;5.83;;;3.60;;
75261;SDS011;63859;51.064;4.580;2023-02-28T08:53:46;4.40;;;3.13;;
75261;SDS011;63859;51.064;4.580;2023-02-28T08:56:14;7.87;;;4.20;;
75261;SDS011;63859;51.064;4.580;2023-02-28T08:58:41;5.60;;;3.80;;
75261;SDS011;63859;51.064;4.580;2023-02-28T09:01:14;7.43;;;3.63;;
75261;SDS011;63859;51.064;4.580;2023-02-28T09:03:42;6.07;;;3.77;;
75261;SDS011;63859;51.064;4.580;2023-02-28T09:06:08;10.33;;;3.20;;
75261;SDS011;63859;51.064;4.580;2023-02-28T09:08:35;12.23;;;3.60;;
75261;SDS011;63859;51.064;4.580;2023-02-28T09:11:01;5.57;;;3.40;;
75261;SDS011;63859;51.064;4.580;2023-02-28T09:13:28;6.13;;;3.13;;
75261;SDS011;63859;51.064;4.580;2023-02-28T09:15:53;4.20;;;3.30;;
75261;SDS011;63859;51.064;4.580;2023-02-28T09:18:22;6.33;;;3.40;;
75261;SDS011;63859;51.064;4.580;2023-02-28T09:20:47;4.43;;;3.10;;
75261;SDS011;63859;51.064;4.580;2023-02-28T09:23:13;5.57;;;2.93;;
75261;SDS011;63859;51.064;4.580;2023-02-28T09:25:44;4.43;;;3.10;;
75261;SDS011;63859;51.064;4.580;2023-02-28T09:28:15;6.13;;;2.37;;
75261;SDS011;63859;51.064;4.580;2023-02-28T09:30:42;6.00;;;2.73;;
75261;SDS011;63859;51.064;4.580;2023-02-28T09:33:12;3.63;;;2.70;;
75261;SDS011;63859;51.064;4.580;2023-02-28T09:35:38;5.13;;;2.53;;
75261;SDS011;63859;51.064;4.580;2023-02-28T09:38:04;3.20;;;2.53;;
75261;SDS011;63859;51.064;4.580;2023-02-28T09:40:32;4.13;;;2.60;;
75261;SDS011;63859;51.064;4.580;2023-02-28T09:43:02;4.77;;;2.77;;
75261;SDS011;63859;51.064;4.580;2023-02-28T09:48:01;5.97;;;2.50;;
75261;SDS011;63859;51.064;4.580;2023-02-28T09:50:41;5.60;;;3.03;;
75261;SDS011;63859;51.064;4.580;2023-02-28T09:53:19;3.33;;;2.87;;
75261;SDS011;63859;51.064;4.580;2023-02-28T09:55:53;4.17;;;2.80;;
75261;SDS011;63859;51.064;4.580;2023-02-28T09:58:44;7.70;;;2.63;;
75261;SDS011;63859;51.064;4.580;2023-02-28T10:01:23;4.13;;;2.30;;
75261;SDS011;63859;51.064;4.580;2023-02-28T10:04:16;4.17;;;2.63;;
75261;SDS011;63859;51.064;4.580;2023-02-28T10:07:10;6.23;;;2.53;;
75261;SDS011;63859;51.064;4.580;2023-02-28T10:09:45;3.20;;;2.40;;
75261;SDS011;63859;51.064;4.580;2023-02-28T10:12:16;3.43;;;2.50;;
75261;SDS011;63859;51.064;4.580;2023-02-28T10:14:44;3.00;;;2.13;;
75261;SDS011;63859;51.064;4.580;2023-02-28T10:17:13;7.73;;;2.90;;
75261;SDS011;63859;51.064;4.580;2023-02-28T10:22:52;4.63;;;2.70;;
75261;SDS011;63859;51.064;4.580;2023-02-28T10:25:23;2.17;;;1.80;;
75261;SDS011;63859;51.064;4.580;2023-02-28T10:27:59;6.03;;;2.90;;
75261;SDS011;63859;51.064;4.580;2023-02-28T10:30:33;3.60;;;2.90;;
75261;SDS011;63859;51.064;4.580;2023-02-28T10:32:59;2.43;;;1.90;;
75261;SDS011;63859;51.064;4.580;2023-02-28T10:35:25;6.00;;;1.93;;
75261;SDS011;63859;51.064;4.580;2023-02-28T10:37:55;5.37;;;2.27;;
75261;SDS011;63859;51.064;4.580;2023-02-28T10:42:56;3.30;;;2.10;;
75261;SDS011;63859;51.064;4.580;2023-02-28T10:45:26;4.87;;;2.23;;
75261;SDS011;63859;51.064;4.580;2023-02-28T10:55:58;3.57;;;2.30;;
75261;SDS011;63859;51.064;4.580;2023-02-28T10:59:25;3.47;;;1.97;;
75261;SDS011;63859;51.064;4.580;2023-02-28T11:01:25;2.40;;;2.20;;
75261;SDS011;63859;51.064;4.580;2023-02-28T11:04:01;2.60;;;2.17;;
75261;SDS011;63859;51.064;4.580;2023-02-28T11:06:32;4.67;;;2.60;;
75261;SDS011;63859;51.064;4.580;2023-02-28T11:09:06;6.77;;;2.77;;
75261;SDS011;63859;51.064;4.580;2023-02-28T11:11:45;3.53;;;2.53;;
75261;SDS011;63859;51.064;4.580;2023-02-28T11:14:18;3.73;;;2.40;;
75261;SDS011;63859;51.064;4.580;2023-02-28T11:16:50;4.03;;;2.50;;
75261;SDS011;63859;51.064;4.580;2023-02-28T11:19:18;5.63;;;2.80;;
75261;SDS011;63859;51.064;4.580;2023-02-28T11:21:55;7.43;;;2.80;;
75261;SDS011;63859;51.064;4.580;2023-02-28T11:24:34;4.60;;;2.43;;
75261;SDS011;63859;51.064;4.580;2023-02-28T11:27:06;4.10;;;2.60;;
75261;SDS011;63859;51.064;4.580;2023-02-28T11:29:39;3.80;;;2.60;;
75261;SDS011;63859;51.064;4.580;2023-02-28T11:32:13;2.67;;;2.30;;
75261;SDS011;63859;51.064;4.580;2023-02-28T11:34:44;3.53;;;2.70;;
75261;SDS011;63859;51.064;4.580;2023-02-28T11:37:15;2.53;;;2.33;;
75261;SDS011;63859;51.064;4.580;2023-02-28T11:39:44;2.97;;;2.40;;
75261;SDS011;63859;51.064;4.580;2023-02-28T11:50:14;8.50;;;2.90;;
75261;SDS011;63859;51.064;4.580;2023-02-28T11:55:18;4.70;;;2.73;;
75261;SDS011;63859;51.064;4.580;2023-02-28T12:06:09;4.17;;;2.73;;
75261;SDS011;63859;51.064;4.580;2023-02-28T12:09:11;2.77;;;2.30;;
75261;SDS011;63859;51.064;4.580;2023-02-28T12:15:21;9.90;;;2.30;;
75261;SDS011;63859;51.064;4.580;2023-02-28T12:28:49;4.93;;;2.57;;
75261;SDS011;63859;51.064;4.580;2023-02-28T12:31:23;6.87;;;2.83;;
75261;SDS011;63859;51.064;4.580;2023-02-28T12:33:56;4.40;;;2.40;;
75261;SDS011;63859;51.064;4.580;2023-02-28T12:36:26;7.47;;;2.30;;
75261;SDS011;63859;51.064;4.580;2023-02-28T12:39:03;4.70;;;2.73;;
75261;SDS011;63859;51.064;4.580;2023-02-28T12:41:47;4.60;;;2.57;;
75261;SDS011;63859;51.064;4.580;2023-02-28T12:44:20;17.50;;;3.07;;
75261;SDS011;63859;51.064;4.580;2023-02-28T12:46:55;4.03;;;2.60;;
75261;SDS011;63859;51.064;4.580;2023-02-28T12:51:57;3.63;;;2.70;;
75261;SDS011;63859;51.064;4.580;2023-02-28T12:54:28;5.10;;;2.60;;
75261;SDS011;63859;51.064;4.580;2023-02-28T12:57:02;3.93;;;2.50;;
75261;SDS011;63859;51.064;4.580;2023-02-28T12:59:39;4.53;;;2.83;;
75261;SDS011;63859;51.064;4.580;2023-02-28T13:02:12;7.80;;;2.63;;
75261;SDS011;63859;51.064;4.580;2023-02-28T13:10:22;3.60;;;2.53;;
75261;SDS011;63859;51.064;4.580;2023-02-28T13:12:52;2.57;;;2.37;;
75261;SDS011;63859;51.064;4.580;2023-02-28T13:17:54;3.07;;;2.77;;
75261;SDS011;63859;51.064;4.580;2023-02-28T13:22:52;5.43;;;2.80;;
75261;SDS011;63859;51.064;4.580;2023-02-28T13:27:48;4.07;;;2.53;;
75261;SDS011;63859;51.064;4.580;2023-02-28T13:36:01;7.30;;;2.77;;
75261;SDS011;63859;51.064;4.580;2023-02-28T13:38:36;4.27;;;2.47;;
75261;SDS011;63859;51.064;4.580;2023-02-28T13:57:42;2.60;;;2.40;;
75261;SDS011;63859;51.064;4.580;2023-02-28T14:03:31;6.23;;;2.70;;
75261;SDS011;63859;51.064;4.580;2023-02-28T14:11:24;4.43;;;2.60;;
75261;SDS011;63859;51.064;4.580;2023-02-28T14:13:53;8.13;;;4.03;;
75261;SDS011;63859;51.064;4.580;2023-02-28T14:16:23;4.20;;;2.80;;
75261;SDS011;63859;51.064;4.580;2023-02-28T14:18:55;3.87;;;2.90;;
75261;SDS011;63859;51.064;4.580;2023-02-28T14:21:29;5.60;;;3.20;;
75261;SDS011;63859;51.064;4.580;2023-02-28T14:34:26;8.27;;;2.83;;
75261;SDS011;63859;51.064;4.580;2023-02-28T14:37:04;7.97;;;2.97;;
75261;SDS011;63859;51.064;4.580;2023-02-28T14:39:32;5.17;;;3.20;;
75261;SDS011;63859;51.064;4.580;2023-02-28T14:41:59;4.93;;;2.80;;
75261;SDS011;63859;51.064;4.580;2023-02-28T14:44:29;3.20;;;2.90;;
75261;SDS011;63859;51.064;4.580;2023-02-28T14:46:56;8.53;;;2.80;;
75261;SDS011;63859;51.064;4.580;2023-02-28T14:49:29;4.67;;;3.10;;
75261;SDS011;63859;51.064;4.580;2023-02-28T14:54:37;14.90;;;3.50;;
75261;SDS011;63859;51.064;4.580;2023-02-28T14:57:04;5.73;;;2.90;;
75261;SDS011;63859;51.064;4.580;2023-02-28T14:59:31;9.70;;;3.40;;
75261;SDS011;63859;51.064;4.580;2023-02-28T15:02:18;4.47;;;2.97;;
75261;SDS011;63859;51.064;4.580;2023-02-28T15:05:50;4.23;;;2.70;;
75261;SDS011;63859;51.064;4.580;2023-02-28T15:08:06;8.60;;;3.23;;
75261;SDS011;63859;51.064;4.580;2023-02-28T15:10:43;22.60;;;4.90;;
75261;SDS011;63859;51.064;4.580;2023-02-28T15:13:12;3.57;;;3.00;;
75261;SDS011;63859;51.064;4.580;2023-02-28T15:18:10;6.23;;;2.97;;
75261;SDS011;63859;51.064;4.580;2023-02-28T15:20:50;3.00;;;2.70;;
75261;SDS011;63859;51.064;4.580;2023-02-28T15:23:17;5.87;;;3.10;;
75261;SDS011;63859;51.064;4.580;2023-02-28T15:25:44;7.17;;;3.43;;
75261;SDS011;63859;51.064;4.580;2023-02-28T15:28:12;6.13;;;2.87;;
75261;SDS011;63859;51.064;4.580;2023-02-28T15:34:02;4.77;;;3.30;;
75261;SDS011;63859;51.064;4.580;2023-02-28T15:36:30;4.73;;;3.10;;
75261;SDS011;63859;51.064;4.580;2023-02-28T15:38:58;6.23;;;3.27;;
75261;SDS011;63859;51.064;4.580;2023-02-28T15:41:26;5.93;;;3.10;;
75261;SDS011;63859;51.064;4.580;2023-02-28T15:49:26;6.07;;;3.00;;
75261;SDS011;63859;51.064;4.580;2023-02-28T15:51:53;5.73;;;3.07;;
75261;SDS011;63859;51.064;4.580;2023-02-28T15:54:23;3.40;;;2.93;;
75261;SDS011;63859;51.064;4.580;2023-02-28T15:56:55;4.73;;;3.03;;
75261;SDS011;63859;51.064;4.580;2023-02-28T15:59:25;9.23;;;3.50;;
75261;SDS011;63859;51.064;4.580;2023-02-28T16:02:04;5.17;;;2.93;;
75261;SDS011;63859;51.064;4.580;2023-02-28T16:07:21;8.43;;;3.40;;
75261;SDS011;63859;51.064;4.580;2023-02-28T16:09:47;6.67;;;3.10;;
75261;SDS011;63859;51.064;4.580;2023-02-28T16:12:13;6.13;;;3.50;;
75261;SDS011;63859;51.064;4.580;2023-02-28T16:14:39;6.23;;;2.90;;
75261;SDS011;63859;51.064;4.580;2023-02-28T16:17:06;7.37;;;2.90;;
75261;SDS011;63859;51.064;4.580;2023-02-28T16:19:41;10.80;;;4.23;;
75261;SDS011;63859;51.064;4.580;2023-02-28T16:22:07;7.80;;;3.20;;
75261;SDS011;63859;51.064;4.580;2023-02-28T16:24:34;11.50;;;3.67;;
75261;SDS011;63859;51.064;4.580;2023-02-28T16:27:00;10.67;;;3.10;;
75261;SDS011;63859;51.064;4.580;2023-02-28T16:29:27;7.47;;;2.90;;
75261;SDS011;63859;51.064;4.580;2023-02-28T16:31:55;5.00;;;2.70;;
75261;SDS011;63859;51.064;4.580;2023-02-28T16:34:22;5.30;;;2.90;;
75261;SDS011;63859;51.064;4.580;2023-02-28T16:36:48;6.33;;;3.00;;
75261;SDS011;63859;51.064;4.580;2023-02-28T16:39:16;6.30;;;3.23;;
75261;SDS011;63859;51.064;4.580;2023-02-28T16:41:45;4.70;;;3.03;;
75261;SDS011;63859;51.064;4.580;2023-02-28T16:44:13;8.13;;;3.37;;
75261;SDS011;63859;51.064;4.580;2023-02-28T16:46:46;5.67;;;3.33;;
75261;SDS011;63859;51.064;4.580;2023-02-28T16:49:12;7.97;;;3.50;;
75261;SDS011;63859;51.064;4.580;2023-02-28T16:51:38;3.87;;;3.00;;
75261;SDS011;63859;51.064;4.580;2023-02-28T16:54:04;9.63;;;3.77;;
75261;SDS011;63859;51.064;4.580;2023-02-28T16:56:29;14.67;;;4.07;;
75261;SDS011;63859;51.064;4.580;2023-02-28T16:58:57;4.00;;;3.47;;
75261;SDS011;63859;51.064;4.580;2023-02-28T17:01:25;5.97;;;3.10;;
75261;SDS011;63859;51.064;4.580;2023-02-28T17:03:52;4.17;;;3.50;;
75261;SDS011;63859;51.064;4.580;2023-02-28T17:08:54;5.40;;;3.60;;
75261;SDS011;63859;51.064;4.580;2023-02-28T17:11:20;5.60;;;3.63;;
75261;SDS011;63859;51.064;4.580;2023-02-28T17:13:46;7.70;;;3.50;;
75261;SDS011;63859;51.064;4.580;2023-02-28T17:16:15;8.33;;;3.60;;
75261;SDS011;63859;51.064;4.580;2023-02-28T17:18:54;8.83;;;3.40;;
75261;SDS011;63859;51.064;4.580;2023-02-28T17:21:23;6.47;;;3.90;;
75261;SDS011;63859;51.064;4.580;2023-02-28T17:23:48;12.40;;;3.97;;
75261;SDS011;63859;51.064;4.580;2023-02-28T17:26:15;5.67;;;4.10;;
75261;SDS011;63859;51.064;4.580;2023-02-28T17:28:48;6.60;;;3.63;;
75261;SDS011;63859;51.064;4.580;2023-02-28T17:31:15;8.80;;;4.23;;
75261;SDS011;63859;51.064;4.580;2023-02-28T17:33:41;5.87;;;3.87;;
75261;SDS011;63859;51.064;4.580;2023-02-28T17:36:10;7.23;;;3.60;;
75261;SDS011;63859;51.064;4.580;2023-02-28T17:38:39;9.90;;;4.23;;
75261;SDS011;63859;51.064;4.580;2023-02-28T17:41:05;13.30;;;4.77;;
75261;SDS011;63859;51.064;4.580;2023-02-28T17:43:30;20.47;;;10.17;;
75261;SDS011;63859;51.064;4.580;2023-02-28T17:45:56;24.77;;;13.90;;